Time;durP1;ratioP1;P1;durP2;ratioP2;P2;SDS_P1;SDS_P2;PMS_P1;PMS_P2;Temp;Humidity;BMP_temperature;BMP_pressure;BME280_temperature;BME280_humidity;BME280_pressure;Samples;Min_cycle;Max_cycle;Signal;HPM_P1;HPM_P2
2023/06/09 00:01:30;;;;;;;17.35;9.88;;;;;;;18.03;100.00;101042.81;5016612;28;20050;-73
2023/06/09 00:03:57;;;;;;;18.33;10.15;;;;;;;18.01;100.00;101044.47;5008597;28;20101;-71
2023/06/09 00:06:24;;;;;;;17.73;10.23;;;;;;;17.99;100.00;101038.56;5010334;28;20076;-76
2023/06/09 00:08:51;;;;;;;16.73;9.35;;;;;;;17.95;100.00;101038.69;5021048;28;20680;-74
2023/06/09 00:11:18;;;;;;;19.75;9.40;;;;;;;17.94;100.00;101027.88;5006686;28;20084;-73
2023/06/09 00:13:45;;;;;;;17.77;10.48;;;;;;;17.90;100.00;101028.00;5007546;28;20052;-73
2023/06/09 00:16:12;;;;;;;20.50;9.77;;;;;;;17.91;100.00;101028.78;5007138;28;20870;-72
2023/06/09 00:18:40;;;;;;;19.95;9.93;;;;;;;17.90;100.00;101032.84;5011899;28;20064;-72
2023/06/09 00:21:06;;;;;;;20.60;9.90;;;;;;;17.88;100.00;101029.69;5015702;28;20079;-72
2023/06/09 00:23:33;;;;;;;20.05;10.10;;;;;;;17.88;100.00;101027.66;5019113;28;20046;-73
2023/06/09 00:26:00;;;;;;;20.80;10.05;;;;;;;17.90;100.00;101025.19;5013198;28;20069;-73
2023/06/09 00:28:27;;;;;;;18.50;9.18;;;;;;;17.89;100.00;101025.66;5008873;28;20131;-72
2023/06/09 00:30:54;;;;;;;19.92;8.90;;;;;;;17.85;100.00;101027.81;4998985;28;20050;-71
2023/06/09 00:33:20;;;;;;;18.08;9.43;;;;;;;17.83;100.00;101022.66;5002963;28;20050;-73
2023/06/09 00:35:49;;;;;;;17.75;9.52;;;;;;;17.81;100.00;101019.50;5005219;28;20575;-71
2023/06/09 00:38:15;;;;;;;17.92;9.95;;;;;;;17.80;100.00;101019.97;5021239;28;20107;-72
2023/06/09 00:40:42;;;;;;;20.35;9.45;;;;;;;17.74;100.00;101031.03;5007884;28;20753;-71
2023/06/09 00:43:08;;;;;;;19.10;8.93;;;;;;;17.71;100.00;101028.34;5006377;28;20096;-71
2023/06/09 00:45:35;;;;;;;21.00;8.85;;;;;;;17.60;100.00;101020.31;5007411;28;20131;-74
2023/06/09 00:48:01;;;;;;;18.92;9.57;;;;;;;17.54;100.00;101022.16;5005143;28;20081;-71
2023/06/09 00:50:29;;;;;;;19.77;8.40;;;;;;;17.52;100.00;101029.47;5000316;28;20046;-74
2023/06/09 00:52:58;;;;;;;19.58;9.45;;;;;;;17.53;100.00;101020.59;5008571;28;20104;-73
2023/06/09 00:55:26;;;;;;;19.38;8.73;;;;;;;17.52;100.00;101021.84;5027431;28;20111;-74
2023/06/09 00:57:55;;;;;;;21.73;9.73;;;;;;;17.47;100.00;101022.41;5012396;28;20503;-74
2023/06/09 01:00:27;;;;;;;22.85;8.43;;;;;;;17.48;100.00;101017.59;5013498;28;20049;-73
2023/06/09 01:03:02;;;;;;;19.13;8.30;;;;;;;17.48;100.00;101031.63;5010274;28;20048;-73
2023/06/09 01:05:32;;;;;;;20.92;8.35;;;;;;;17.49;100.00;101033.19;4998121;28;20446;-73
2023/06/09 01:08:23;;;;;;;22.30;8.77;;;;;;;17.49;100.00;101033.19;5005549;28;20468;-73
2023/06/09 01:10:53;;;;;;;20.17;8.00;;;;;;;17.48;100.00;101038.03;5011340;28;20053;-74
2023/06/09 01:13:53;;;;;;;23.98;9.23;;;;;;;17.45;100.00;101035.34;5006708;28;20073;-74
2023/06/09 01:16:27;;;;;;;17.38;8.40;;;;;;;17.47;100.00;101033.66;5010375;28;20523;-75
2023/06/09 01:18:57;;;;;;;19.05;9.30;;;;;;;17.45;100.00;101024.13;5008842;28;20050;-75
2023/06/09 01:21:48;;;;;;;20.83;7.97;;;;;;;17.44;100.00;101023.31;5005787;28;20626;-72
2023/06/09 01:24:30;;;;;;;18.63;8.60;;;;;;;17.42;100.00;101032.22;5003435;28;20073;-73
2023/06/09 01:27:02;;;;;;;17.30;8.18;;;;;;;17.41;100.00;101020.66;5009517;28;20058;-76
2023/06/09 01:29:32;;;;;;;16.90;8.20;;;;;;;17.41;100.00;101017.84;5014984;28;20053;-71
2023/06/09 01:32:02;;;;;;;18.75;8.10;;;;;;;17.35;100.00;101021.22;5007157;28;20050;-72
2023/06/09 01:34:30;;;;;;;18.67;8.68;;;;;;;17.38;100.00;101019.53;5012479;28;20093;-74
2023/06/09 01:36:57;;;;;;;18.83;8.18;;;;;;;17.42;100.00;101026.59;5006673;28;20081;-74
2023/06/09 01:39:26;;;;;;;19.00;8.40;;;;;;;17.41;100.00;101023.47;5002114;28;20050;-75
2023/06/09 01:41:52;;;;;;;19.02;8.15;;;;;;;17.41;100.00;101026.28;5007061;28;20128;-75
2023/06/09 01:44:19;;;;;;;21.17;8.27;;;;;;;17.35;100.00;101031.66;5009490;28;20085;-71
2023/06/09 01:46:45;;;;;;;18.77;8.18;;;;;;;17.33;100.00;101029.34;5007024;28;20065;-72
2023/06/09 01:49:29;;;;;;;21.00;7.70;;;;;;;17.32;100.00;101024.19;5008643;28;20812;-74
2023/06/09 01:52:24;;;;;;;16.27;7.65;;;;;;;17.29;100.00;101019.47;5017629;28;20075;-74
2023/06/09 01:55:00;;;;;;;19.05;8.18;;;;;;;17.22;100.00;101014.88;5008033;28;20149;-72
2023/06/09 01:57:32;;;;;;;17.88;7.53;;;;;;;17.23;100.00;101021.28;5006435;28;20045;-71
2023/06/09 02:00:03;;;;;;;15.88;7.90;;;;;;;17.20;100.00;101014.56;5006952;28;20532;-71
2023/06/09 02:02:33;;;;;;;22.80;8.68;;;;;;;17.18;100.00;101016.22;4999101;28;20096;-71
2023/06/09 02:05:03;;;;;;;21.77;8.88;;;;;;;17.13;100.00;101008.41;5013632;28;20053;-73
2023/06/09 02:07:30;;;;;;;18.85;8.73;;;;;;;17.10;100.00;101007.25;5002855;28;20104;-74
2023/06/09 02:09:57;;;;;;;22.25;9.20;;;;;;;17.10;100.00;101015.69;5019859;28;20176;-74
2023/06/09 02:12:30;;;;;;;17.98;8.18;;;;;;;17.07;100.00;101015.81;5019028;28;20404;-74
2023/06/09 02:14:57;;;;;;;19.90;8.10;;;;;;;17.07;100.00;101008.19;5011220;28;20089;-74
2023/06/09 02:17:23;;;;;;;18.33;8.38;;;;;;;17.06;100.00;101009.41;5021019;28;20149;-74
2023/06/09 02:19:50;;;;;;;18.48;8.43;;;;;;;17.04;100.00;101011.88;5015307;28;20042;-75
2023/06/09 02:22:16;;;;;;;22.85;8.73;;;;;;;17.04;100.00;101011.09;5009559;28;20566;-74
2023/06/09 02:24:43;;;;;;;18.85;9.05;;;;;;;17.00;100.00;101004.81;5010725;28;20088;-72
2023/06/09 02:27:09;;;;;;;21.33;9.50;;;;;;;16.96;100.00;101009.78;5011276;28;20119;-75
2023/06/09 02:29:36;;;;;;;23.17;8.52;;;;;;;16.95;100.00;101014.59;5011147;28;20557;-73
2023/06/09 02:32:03;;;;;;;17.90;8.48;;;;;;;16.91;100.00;101010.38;5009121;28;20081;-74
2023/06/09 02:34:31;;;;;;;18.88;8.57;;;;;;;16.92;100.00;101021.13;5009230;28;20107;-74
2023/06/09 02:36:59;;;;;;;16.73;7.93;;;;;;;16.93;100.00;101019.13;5010860;28;20050;-74
2023/06/09 02:39:25;;;;;;;22.48;8.75;;;;;;;16.90;100.00;101017.22;5010887;28;20062;-71
2023/06/09 02:41:52;;;;;;;19.52;7.80;;;;;;;16.85;100.00;101021.38;5016443;28;20110;-74
2023/06/09 02:44:18;;;;;;;19.17;8.43;;;;;;;16.84;100.00;101019.81;5010691;28;20578;-69
2023/06/09 02:46:45;;;;;;;19.58;8.48;;;;;;;16.83;100.00;101018.25;5009588;28;20096;-73
2023/06/09 02:49:12;;;;;;;17.48;7.82;;;;;;;16.77;100.00;101014.44;5011173;28;20511;-73
2023/06/09 02:51:38;;;;;;;20.80;9.38;;;;;;;16.77;100.00;101017.25;5015247;28;20045;-72
2023/06/09 02:54:05;;;;;;;21.10;8.52;;;;;;;16.76;100.00;101012.88;5012239;28;20054;-74
2023/06/09 02:56:31;;;;;;;17.50;8.07;;;;;;;16.71;100.00;101015.47;5012604;28;20111;-74
2023/06/09 02:58:58;;;;;;;20.05;8.88;;;;;;;16.68;100.00;101017.16;5010366;28;20049;-71
2023/06/09 03:01:27;;;;;;;25.77;9.05;;;;;;;16.65;100.00;101020.84;5020598;28;20416;-73
2023/06/09 03:03:53;;;;;;;21.60;9.05;;;;;;;16.63;100.00;101020.53;5015429;28;20097;-71
2023/06/09 03:06:20;;;;;;;22.17;9.13;;;;;;;16.56;100.00;101022.78;5026080;28;20136;-71
2023/06/09 03:08:47;;;;;;;21.30;9.43;;;;;;;16.49;100.00;101018.19;5014420;28;20053;-72
2023/06/09 03:11:13;;;;;;;21.13;9.00;;;;;;;16.46;100.00;101021.91;5011727;28;20141;-71
2023/06/09 03:13:40;;;;;;;21.17;9.40;;;;;;;16.44;100.00;101018.00;5010003;28;20077;-71
2023/06/09 03:16:07;;;;;;;19.77;9.00;;;;;;;16.42;100.00;101029.66;5018636;28;20107;-72
2023/06/09 03:18:33;;;;;;;18.20;10.02;;;;;;;16.40;100.00;101026.50;5017214;28;20045;-74
2023/06/09 03:21:04;;;;;;;20.10;9.32;;;;;;;16.37;100.00;101030.22;5012337;28;20096;-71
2023/06/09 03:23:33;;;;;;;25.48;9.55;;;;;;;16.33;100.00;101025.94;5004103;28;20444;-70
2023/06/09 03:26:00;;;;;;;20.08;8.85;;;;;;;16.29;100.00;101033.69;5012459;28;20130;-72
2023/06/09 03:28:26;;;;;;;20.63;8.90;;;;;;;16.26;100.00;101034.59;5009783;28;20141;-71
2023/06/09 03:30:54;;;;;;;19.80;8.88;;;;;;;16.22;100.00;101040.28;5014286;28;20203;-74
2023/06/09 03:33:22;;;;;;;22.60;9.15;;;;;;;16.21;100.00;101032.31;5013974;28;21115;-71
2023/06/09 03:35:49;;;;;;;20.75;10.10;;;;;;;16.21;100.00;101047.16;5009174;28;20112;-73
2023/06/09 03:38:16;;;;;;;22.67;9.52;;;;;;;16.19;100.00;101052.41;5009708;28;20104;-73
2023/06/09 03:40:43;;;;;;;25.50;9.07;;;;;;;16.11;100.00;101047.47;5007673;28;20156;-72
2023/06/09 03:43:11;;;;;;;22.52;10.77;;;;;;;16.13;100.00;101053.41;5012026;28;20088;-71
2023/06/09 03:45:38;;;;;;;20.63;9.20;;;;;;;16.13;100.00;101056.22;5017481;28;20057;-73
2023/06/09 03:48:06;;;;;;;18.48;9.25;;;;;;;16.10;100.00;101052.28;5016024;28;20093;-71
2023/06/09 03:50:33;;;;;;;23.05;9.43;;;;;;;16.10;100.00;101057.13;5018030;28;20080;-73
2023/06/09 03:53:00;;;;;;;17.05;8.90;;;;;;;16.10;100.00;101052.28;5008846;28;20073;-73
2023/06/09 03:55:31;;;;;;;18.75;8.68;;;;;;;16.10;100.00;101049.47;5017691;28;20045;-73
2023/06/09 03:57:57;;;;;;;22.42;9.05;;;;;;;16.12;100.00;101051.84;5015848;28;20057;-73
2023/06/09 04:00:24;;;;;;;24.30;9.25;;;;;;;16.11;100.00;101053.06;5005358;28;20140;-74
2023/06/09 04:02:50;;;;;;;21.73;10.50;;;;;;;16.08;100.00;101062.38;5007626;28;20038;-73
2023/06/09 04:05:17;;;;;;;19.55;8.98;;;;;;;16.08;100.00;101062.38;5014782;28;20053;-74
2023/06/09 04:07:44;;;;;;;20.02;9.57;;;;;;;16.09;100.00;101058.34;5012729;28;20132;-73
2023/06/09 04:10:10;;;;;;;21.73;9.68;;;;;;;16.10;100.00;101057.13;5007045;28;20420;-72
2023/06/09 04:12:38;;;;;;;28.88;9.98;;;;;;;16.10;100.00;101052.28;5023338;28;20136;-73
2023/06/09 04:15:06;;;;;;;22.98;9.40;;;;;;;16.10;100.00;101052.28;5017380;28;20089;-75
2023/06/09 04:17:34;;;;;;;24.15;10.05;;;;;;;16.10;100.00;101046.66;5008940;28;20085;-73
2023/06/09 04:20:04;;;;;;;19.05;9.07;;;;;;;16.07;100.00;101050.38;5016436;28;20413;-74
2023/06/09 04:22:31;;;;;;;20.85;9.98;;;;;;;16.08;100.00;101057.56;5014908;28;20069;-72
2023/06/09 04:24:58;;;;;;;20.45;10.15;;;;;;;16.10;100.00;101052.28;5007311;28;20084;-69
2023/06/09 04:27:25;;;;;;;24.25;9.80;;;;;;;16.09;100.00;101050.72;5008639;28;20176;-76
2023/06/09 04:29:52;;;;;;;25.17;10.50;;;;;;;16.09;100.00;101053.53;5008867;28;20053;-73
2023/06/09 04:32:19;;;;;;;22.15;10.00;;;;;;;16.11;100.00;101053.06;5007897;28;20136;-72
2023/06/09 04:34:46;;;;;;;22.33;9.77;;;;;;;16.09;100.00;101047.13;5016863;28;20102;-73
2023/06/09 04:37:13;;;;;;;23.67;10.55;;;;;;;16.12;100.00;101051.84;5006398;28;20054;-73
2023/06/09 04:39:45;;;;;;;20.60;9.35;;;;;;;16.17;100.00;101049.25;5005213;28;20105;-71
2023/06/09 04:42:12;;;;;;;19.52;9.52;;;;;;;16.21;100.00;101049.94;5016516;28;20140;-72
2023/06/09 04:44:39;;;;;;;20.33;9.13;;;;;;;16.28;100.00;101060.19;5008086;28;20069;-73
2023/06/09 04:47:10;;;;;;;20.58;9.63;;;;;;;16.31;100.00;101053.69;5008419;28;20555;-73
2023/06/09 04:49:37;;;;;;;17.20;10.07;;;;;;;16.35;100.00;101055.16;5008128;28;20085;-73
2023/06/09 04:52:07;;;;;;;21.52;9.82;;;;;;;16.40;100.00;101057.38;5009693;28;20054;-71
2023/06/09 04:54:34;;;;;;;23.85;10.57;;;;;;;16.46;100.00;101054.78;5021113;28;20046;-73
2023/06/09 04:57:02;;;;;;;21.27;10.73;;;;;;;16.42;100.00;101052.09;5019222;28;20061;-74
2023/06/09 04:59:28;;;;;;;22.02;11.25;;;;;;;16.47;100.00;101062.75;5006401;28;20053;-73
2023/06/09 05:01:55;;;;;;;22.65;11.27;;;;;;;16.53;100.00;101066.56;5014355;28;20048;-71
2023/06/09 05:04:22;;;;;;;20.00;10.82;;;;;;;16.59;100.00;101061.97;5016903;28;20053;-72
2023/06/09 05:06:48;;;;;;;17.20;9.90;;;;;;;16.66;100.00;101064.56;5007183;28;20077;-72
2023/06/09 05:09:15;;;;;;;22.55;11.65;;;;;;;16.72;100.00;101059.16;5007570;28;20057;-73
2023/06/09 05:11:42;;;;;;;20.52;10.85;;;;;;;16.75;100.00;101061.06;5005885;28;20078;-73
2023/06/09 05:14:08;;;;;;;25.35;12.80;;;;;;;16.78;100.00;101060.16;5004427;28;20084;-73
2023/06/09 05:16:35;;;;;;;21.83;12.63;;;;;;;16.81;100.00;101065.63;5004677;28;20517;-73
2023/06/09 05:19:02;;;;;;;23.83;12.80;;;;;;;16.86;100.00;101064.28;5014384;28;20062;-70
2023/06/09 05:21:28;;;;;;;23.15;12.35;;;;;;;16.95;100.00;101070.00;5015300;28;20096;-73
2023/06/09 05:23:55;;;;;;;23.00;12.73;;;;;;;17.01;100.00;101068.97;5012802;28;20045;-73
2023/06/09 05:26:22;;;;;;;24.45;13.02;;;;;;;17.05;100.00;101071.66;5008450;28;20053;-73
2023/06/09 05:28:49;;;;;;;25.30;14.68;;;;;;;17.07;100.00;101075.59;5014241;28;20527;-74
2023/06/09 05:31:16;;;;;;;23.23;13.88;;;;;;;17.12;100.00;101077.84;5007169;28;20093;-72
2023/06/09 05:33:44;;;;;;;23.38;13.73;;;;;;;17.18;100.00;101078.03;5007652;28;20049;-73
2023/06/09 05:36:12;;;;;;;24.13;13.50;;;;;;;17.18;100.00;101073.22;5024202;28;20608;-71
2023/06/09 05:38:38;;;;;;;23.50;13.88;;;;;;;17.26;100.00;101073.75;5013191;28;20057;-75
2023/06/09 05:41:05;;;;;;;26.20;13.88;;;;;;;17.28;100.00;101080.50;5006166;28;20055;-73
2023/06/09 05:43:32;;;;;;;24.55;14.45;;;;;;;17.32;100.00;101080.38;5008706;28;20069;-72
2023/06/09 05:45:59;;;;;;;25.33;14.40;;;;;;;17.34;100.00;101084.31;5007442;28;20057;-71
2023/06/09 05:48:26;;;;;;;25.17;14.30;;;;;;;17.38;100.00;101076.53;5023963;28;20065;-72
2023/06/09 05:50:52;;;;;;;27.42;14.70;;;;;;;17.42;100.00;101082.81;5015017;28;20120;-73
2023/06/09 05:53:19;;;;;;;22.80;14.48;;;;;;;17.50;100.00;101082.53;5004356;28;20042;-72
2023/06/09 05:55:45;;;;;;;25.63;15.20;;;;;;;17.54;100.00;101078.38;5011953;28;20183;-73
2023/06/09 05:58:13;;;;;;;22.67;14.60;;;;;;;17.61;100.00;101080.16;5012455;28;20130;-73
2023/06/09 06:00:41;;;;;;;25.48;14.88;;;;;;;17.65;100.00;101080.81;5015403;28;20045;-73
2023/06/09 06:03:10;;;;;;;23.13;14.50;;;;;;;17.71;100.00;101074.13;5016763;28;20054;-73
2023/06/09 06:05:37;;;;;;;24.20;15.30;;;;;;;17.71;100.00;101076.13;5007175;28;20085;-70
2023/06/09 06:08:06;;;;;;;31.25;15.85;;;;;;;17.82;100.00;101082.94;5018408;28;20053;-72
2023/06/09 06:10:32;;;;;;;25.40;15.55;;;;;;;17.89;100.00;101084.72;5002053;28;20183;-68
2023/06/09 06:13:02;;;;;;;24.15;14.80;;;;;;;17.96;100.00;101068.38;5008724;28;20099;-70
2023/06/09 06:15:28;;;;;;;25.02;15.52;;;;;;;18.01;100.00;101072.63;5008643;28;20207;-68
2023/06/09 06:17:55;;;;;;;24.77;14.88;;;;;;;18.05;100.00;101076.06;5006720;28;20045;-71
2023/06/09 06:20:21;;;;;;;22.10;14.45;;;;;;;18.12;100.00;101078.66;5021909;28;20104;-72
2023/06/09 06:22:48;;;;;;;23.23;14.65;;;;;;;18.20;100.00;101085.56;5015953;28;20052;-69
2023/06/09 06:25:17;;;;;;;20.92;14.13;;;;;;;18.23;100.00;101081.81;5006978;28;20054;-71
2023/06/09 06:27:44;;;;;;;22.83;14.10;;;;;;;18.32;100.00;101079.03;5006691;28;20052;-72
2023/06/09 06:30:14;;;;;;;22.30;14.90;;;;;;;18.41;100.00;101081.91;5005712;28;20057;-69
2023/06/09 06:32:52;;;;;;;24.45;14.20;;;;;;;18.48;100.00;101073.97;5008217;28;20056;-71
2023/06/09 06:35:27;;;;;;;25.02;14.65;;;;;;;18.55;100.00;101082.13;5001084;28;20168;-72
2023/06/09 06:37:54;;;;;;;22.95;14.00;;;;;;;18.66;100.00;101084.47;5001679;28;20104;-70
2023/06/09 06:40:21;;;;;;;23.48;14.95;;;;;;;18.76;100.00;101088.94;5015564;28;20447;-73
2023/06/09 06:42:48;;;;;;;21.27;14.23;;;;;;;18.88;100.00;101088.03;5012662;28;20455;-74
2023/06/09 06:45:15;;;;;;;20.83;13.93;;;;;;;18.97;100.00;101088.06;5008398;28;20045;-76
2023/06/09 06:47:43;;;;;;;22.17;14.85;;;;;;;18.97;100.00;101076.81;5016175;28;20128;-75
2023/06/09 06:50:10;;;;;;;23.85;13.90;;;;;;;19.12;100.00;101086.22;5008237;28;20050;-73
2023/06/09 06:52:36;;;;;;;23.70;14.38;;;;;;;19.19;100.00;101085.91;5013107;28;20050;-70
2023/06/09 06:55:07;;;;;;;21.95;14.63;;;;;;;19.19;100.00;101083.09;5026621;28;20046;-69
2023/06/09 06:57:35;;;;;;;23.85;14.57;;;;;;;19.23;100.00;101083.72;5007387;28;20132;-70
2023/06/09 07:00:14;;;;;;;23.60;14.23;;;;;;;19.27;100.00;101087.94;5005754;28;20084;-71
2023/06/09 07:02:50;;;;;;;23.35;14.48;;;;;;;19.34;100.00;101084.81;5018398;28;20068;-71
2023/06/09 07:05:17;;;;;;;24.45;15.68;;;;;;;19.41;100.00;101080.91;5008448;28;20051;-70
2023/06/09 07:07:45;;;;;;;22.15;15.55;;;;;;;19.46;100.00;101083.09;5000788;28;20101;-69
2023/06/09 07:10:12;;;;;;;22.92;15.07;;;;;;;19.56;100.00;101081.88;5014177;28;20049;-69
2023/06/09 07:12:41;;;;;;;22.92;14.95;;;;;;;19.60;100.00;101077.66;5010232;28;20049;-68
2023/06/09 07:15:08;;;;;;;21.65;14.70;;;;;;;19.72;100.00;101087.19;5015375;28;20508;-69
2023/06/09 07:17:35;;;;;;;22.42;15.30;;;;;;;19.80;100.00;101077.16;5012207;28;20122;-69
2023/06/09 07:20:02;;;;;;;22.15;14.07;;;;;;;19.87;100.00;101082.47;5013514;28;20058;-72
2023/06/09 07:22:28;;;;;;;25.58;15.55;;;;;;;20.01;100.00;101086.69;5010093;28;20073;-70
2023/06/09 07:24:56;;;;;;;27.35;14.82;;;;;;;20.15;100.00;101088.84;5007788;28;20053;-72
2023/06/09 07:27:22;;;;;;;21.58;13.77;;;;;;;20.24;100.00;101086.81;5018066;28;20061;-70
2023/06/09 07:29:49;;;;;;;24.63;13.63;;;;;;;20.37;100.00;101090.22;5015461;28;20131;-72
2023/06/09 07:32:16;;;;;;;23.83;14.38;;;;;;;20.51;100.00;101086.69;5009129;28;20602;-69
2023/06/09 07:34:45;;;;;;;24.50;13.32;;;;;;;20.64;100.00;101081.63;5010009;28;20606;-70
2023/06/09 07:37:13;;;;;;;25.75;14.52;;;;;;;20.71;100.00;101083.31;5009366;28;20057;-68
2023/06/09 07:39:40;;;;;;;21.38;13.48;;;;;;;20.75;100.00;101086.72;5009322;28;20056;-71
2023/06/09 07:42:06;;;;;;;19.50;13.13;;;;;;;20.75;100.00;101084.69;5017938;28;20085;-67
2023/06/09 07:44:34;;;;;;;23.92;13.70;;;;;;;20.80;100.00;101069.94;5016153;28;20469;-73
2023/06/09 07:47:01;;;;;;;19.55;12.80;;;;;;;20.88;100.00;101079.59;5008956;28;20141;-70
2023/06/09 07:49:28;;;;;;;22.13;13.57;;;;;;;20.99;100.00;101079.88;5019328;28;20526;-70
2023/06/09 07:51:55;;;;;;;19.48;12.80;;;;;;;21.06;100.00;101085.16;5013450;28;20054;-70
2023/06/09 07:54:22;;;;;;;18.00;11.48;;;;;;;21.12;100.00;101071.16;5010920;28;20061;-69
2023/06/09 07:56:50;;;;;;;20.42;11.82;;;;;;;21.25;100.00;101075.31;5022266;28;20053;-70
2023/06/09 07:59:17;;;;;;;18.58;11.95;;;;;;;21.30;100.00;101073.84;5002759;28;20193;-68
2023/06/09 08:01:44;;;;;;;19.08;11.25;;;;;;;21.38;100.00;101078.66;5014743;28;20085;-68
2023/06/09 08:04:11;;;;;;;22.23;12.55;;;;;;;21.50;100.00;101080.44;5026668;28;20052;-68
2023/06/09 08:06:38;;;;;;;17.83;10.88;;;;;;;21.52;100.00;101077.13;5006437;28;20054;-68
2023/06/09 08:09:04;;;;;;;21.30;11.40;;;;;;;21.59;100.00;101082.41;5017218;28;20116;-67
2023/06/09 08:11:31;;;;;;;19.83;11.10;;;;;;;21.71;100.00;101078.56;5007698;28;20124;-70
2023/06/09 08:14:00;;;;;;;17.60;11.57;;;;;;;21.81;100.00;101074.38;5001809;28;20057;-68
2023/06/09 08:16:26;;;;;;;19.63;12.20;;;;;;;21.81;100.00;101075.13;5008175;28;20041;-71
2023/06/09 08:18:53;;;;;;;18.50;11.05;;;;;;;21.89;100.00;101078.38;5021007;28;20096;-68
2023/06/09 08:21:20;;;;;;;21.83;10.80;;;;;;;22.01;100.00;101080.16;5007425;28;20076;-71
2023/06/09 08:23:46;;;;;;;18.40;11.90;;;;;;;22.12;100.00;101083.16;5006690;28;20061;-69
2023/06/09 08:26:13;;;;;;;23.70;12.55;;;;;;;22.21;100.00;101073.78;5016641;28;20510;-69
2023/06/09 08:28:40;;;;;;;22.13;12.18;;;;;;;22.30;100.00;101073.69;5007940;28;20046;-69
2023/06/09 08:31:08;;;;;;;20.98;11.20;;;;;;;22.40;100.00;101073.09;5006424;28;20176;-67
2023/06/09 08:33:36;;;;;;;19.38;11.68;;;;;;;22.51;100.00;101072.50;5003238;28;20046;-69
2023/06/09 08:36:03;;;;;;;18.63;10.57;;;;;;;22.61;100.00;101068.28;5006482;28;20143;-69
2023/06/09 08:38:35;;;;;;;19.60;10.38;;;;;;;22.68;100.00;101056.53;5005862;28;20141;-71
2023/06/09 08:41:08;;;;;;;22.45;10.63;;;;;;;22.81;100.00;101063.41;5004360;28;20143;-71
2023/06/09 08:43:35;;;;;;;24.60;10.70;;;;;;;22.97;100.00;101059.28;5008372;28;20141;-72
2023/06/09 08:46:05;;;;;;;27.55;10.55;;;;;;;23.13;100.00;101059.53;5007665;28;20057;-70
2023/06/09 08:48:33;;;;;;;17.30;10.32;;;;;;;23.29;100.00;101061.00;5009299;28;20060;-74
2023/06/09 08:51:01;;;;;;;16.58;9.90;;;;;;;23.43;100.00;101060.94;5011842;28;20512;-73
2023/06/09 08:53:29;;;;;;;17.25;9.63;;;;;;;23.58;100.00;101063.66;5010303;28;20104;-73
2023/06/09 08:55:58;;;;;;;17.75;9.77;;;;;;;23.64;100.00;101053.16;5008065;28;21099;-74
2023/06/09 08:58:26;;;;;;;16.45;9.55;;;;;;;23.79;100.00;101062.34;5012230;28;20061;-75
2023/06/09 09:00:54;;;;;;;15.52;8.75;;;;;;;23.91;100.00;101061.97;5016472;28;20046;-76
2023/06/09 09:03:20;;;;;;;16.42;8.80;;;;;;;24.04;100.00;101061.56;5015688;28;20516;-71
2023/06/09 09:05:47;;;;;;;15.90;8.57;;;;;;;24.12;100.00;101060.63;5005053;28;20081;-70
2023/06/09 09:08:14;;;;;;;19.52;8.75;;;;;;;24.23;100.00;101057.09;5012180;28;20740;-70
2023/06/09 09:10:45;;;;;;;14.48;8.35;;;;;;;24.27;100.00;101063.34;5012807;28;20199;-69
2023/06/09 09:13:13;;;;;;;16.90;8.70;;;;;;;24.38;100.00;101055.69;5013664;28;20053;-70
2023/06/09 09:15:47;;;;;;;16.17;7.90;;;;;;;24.49;100.00;101066.34;5016600;28;20049;-70
2023/06/09 09:18:16;;;;;;;13.02;7.78;;;;;;;24.50;100.00;101052.94;5005490;28;20107;-70
2023/06/09 09:20:43;;;;;;;17.98;7.35;;;;;;;24.60;100.00;101051.47;5011201;28;20045;-71
2023/06/09 09:23:10;;;;;;;12.27;7.65;;;;;;;24.64;100.00;101058.47;5023225;28;20057;-66
2023/06/09 09:25:37;;;;;;;14.80;7.90;;;;;;;24.59;100.00;101053.50;5015927;28;20136;-68
2023/06/09 09:28:12;;;;;;;24.27;9.07;;;;;;;24.73;100.00;101054.66;5015348;28;20492;-68
2023/06/09 09:30:39;;;;;;;18.90;8.35;;;;;;;24.83;100.00;101051.06;5007721;28;20065;-69
2023/06/09 09:33:18;;;;;;;21.60;8.55;;;;;;;24.82;100.00;101052.38;5008597;28;20049;-68
2023/06/09 09:35:48;;;;;;;12.88;7.38;;;;;;;24.90;100.00;101044.94;5021423;28;20057;-69
2023/06/09 09:38:18;;;;;;;35.65;9.07;;;;;;;25.01;100.00;101032.84;5011553;28;20504;-70
2023/06/09 09:40:47;;;;;;;13.75;7.38;;;;;;;24.93;100.00;101031.75;5012127;28;20115;-69
2023/06/09 09:43:14;;;;;;;15.52;7.50;;;;;;;25.12;100.00;101030.84;5006322;28;20049;-69
2023/06/09 09:46:04;;;;;;;11.93;7.40;;;;;;;25.23;100.00;101035.75;4996941;28;20856;-69
2023/06/09 09:48:33;;;;;;;15.43;7.38;;;;;;;25.40;100.00;101037.38;5014259;28;20037;-70
2023/06/09 09:51:00;;;;;;;28.48;8.52;;;;;;;25.51;100.00;101028.16;5006251;28;20050;-69
2023/06/09 09:53:27;;;;;;;22.25;8.27;;;;;;;25.57;100.00;101029.69;5009313;28;20050;-69
2023/06/09 09:55:56;;;;;;;29.40;7.65;;;;;;;25.67;100.00;101028.16;5014913;28;20038;-68
2023/06/09 09:58:31;;;;;;;11.30;7.03;;;;;;;25.77;100.00;101020.94;5005746;28;20053;-68
2023/06/09 10:01:03;;;;;;;15.02;7.65;;;;;;;25.90;100.00;101026.91;5006095;28;20046;-69
2023/06/09 10:03:31;;;;;;;14.05;7.28;;;;;;;25.91;100.00;101030.50;5010633;28;20067;-68
2023/06/09 10:06:00;;;;;;;38.50;11.18;;;;;;;26.03;100.00;101029.28;5009734;28;20056;-70
2023/06/09 10:08:31;;;;;;;15.55;7.90;;;;;;;26.08;100.00;101026.41;5014402;28;20520;-69
2023/06/09 10:11:02;;;;;;;21.75;9.07;;;;;;;26.09;100.00;101022.28;5010309;28;20070;-69
2023/06/09 10:13:29;;;;;;;16.38;7.75;;;;;;;26.18;100.00;101022.00;5007688;28;20052;-68
2023/06/09 10:15:57;;;;;;;13.55;7.40;;;;;;;26.31;100.00;101018.63;5003576;28;20522;-71
2023/06/09 10:18:23;;;;;;;13.15;6.45;;;;;;;26.39;100.00;101020.44;5005668;28;20095;-72
2023/06/09 10:20:54;;;;;;;17.27;7.57;;;;;;;26.45;99.60;101004.09;5015865;28;20103;-71
2023/06/09 10:23:22;;;;;;;13.73;7.95;;;;;;;26.60;100.00;101009.56;5006756;28;20056;-71
2023/06/09 10:25:50;;;;;;;14.40;7.53;;;;;;;26.65;100.00;101000.97;5007016;28;20121;-72
2023/06/09 10:28:18;;;;;;;13.07;6.78;;;;;;;26.76;99.85;100997.31;5010312;28;20131;-71
2023/06/09 10:30:47;;;;;;;12.70;7.22;;;;;;;26.91;100.00;100999.84;5008324;28;20064;-70
2023/06/09 10:33:24;;;;;;;14.55;6.93;;;;;;;27.03;97.11;100998.53;5009517;28;20681;-69
2023/06/09 10:35:56;;;;;;;13.70;6.78;;;;;;;27.15;96.88;101005.72;5003108;28;20104;-74
2023/06/09 10:38:30;;;;;;;14.32;6.80;;;;;;;27.32;95.81;101007.22;5008580;28;20112;-70
2023/06/09 10:41:31;;;;;;;14.32;7.22;;;;;;;27.39;92.00;101003.00;5010112;28;20058;-71
2023/06/09 10:44:07;;;;;;;12.30;7.38;;;;;;;27.44;92.94;101002.97;5007516;28;20077;-70
2023/06/09 10:46:41;;;;;;;14.27;6.53;;;;;;;27.65;94.58;100994.81;5012057;28;20547;-69
2023/06/09 10:49:24;;;;;;;12.40;6.20;;;;;;;27.84;94.93;101001.47;5019617;28;20050;-69
2023/06/09 10:51:55;;;;;;;11.98;6.38;;;;;;;27.94;87.97;101008.41;5015199;28;20046;-69
2023/06/09 10:54:23;;;;;;;10.63;6.30;;;;;;;27.99;89.18;101005.50;5005562;28;20048;-69
2023/06/09 10:56:57;;;;;;;17.65;7.22;;;;;;;28.09;86.21;101001.00;5008682;28;20057;-69
2023/06/09 10:59:24;;;;;;;9.70;6.00;;;;;;;28.12;87.78;101002.78;5009695;28;20088;-70
2023/06/09 11:02:02;;;;;;;12.15;6.53;;;;;;;28.22;88.97;101003.97;5005701;28;20065;-70
2023/06/09 11:07:09;;;;;;;10.65;6.60;;;;;;;28.44;86.28;100983.00;5011683;28;20520;-70
2023/06/09 11:09:36;;;;;;;13.18;7.20;;;;;;;28.67;85.87;100987.16;5014083;28;20084;-69
2023/06/09 11:12:03;;;;;;;11.43;7.13;;;;;;;28.90;84.36;100985.63;5008226;28;20092;-70
2023/06/09 11:14:45;;;;;;;11.70;6.50;;;;;;;29.05;81.83;100991.66;5005632;28;20069;-70
2023/06/09 11:17:26;;;;;;;9.88;6.35;;;;;;;29.13;83.23;100968.94;5018843;28;20120;-71